Symphony Classica — JG4838 — position and weather

sailwx.info

Track history (hours):
 
Tides and Currents Weather Stations Pressure Air Temp Water Temp Dewpoint Dewpoint Depression Visibility Wind Speed Wind Dir Waves Ship Positions

Symphony Classica

Last reported at 2018-Apr-22 06:30 UTC. Time now 2018-Apr-22 06:43 UTC.
Position N 35°38' E 139°46'.

Length 70 m; draft 2.6 m.

Type: Passenger vessel. MMSI: 431000425.

Date/timePositionNaut miles runAvg speedWind from/ knotsBaromVisibWave heightAir tempDewpointWater temp
2018-Apr-22 06:30N 35°38' E 139°46'1 1.6
2018-Apr-22 06:00N 35°39' E 139°46'0 0.0
2018-Apr-22 05:15N 35°39' E 139°46'0 0.0
2018-Apr-22 04:57N 35°39' E 139°46'1 2.3
2018-Apr-22 04:30N 35°38' E 139°46'5 9.2
2018-Apr-22 04:00N 35°34' E 139°49'3 5.2
2018-Apr-22 03:30N 35°37' E 139°49'3 6.3
2018-Apr-22 03:00N 35°38' E 139°46'1 0.1
2018-Apr-21 12:28N 35°39' E 139°46'1 2.7
2018-Apr-21 12:00N 35°38' E 139°46'4 8.8
2018-Apr-21 11:30N 35°34' E 139°49'2 4.1
2018-Apr-21 10:59N 35°35' E 139°51'3 6.4
2018-Apr-21 10:31N 35°36' E 139°47'3 6.6
2018-Apr-21 10:00N 35°39' E 139°46'0 0.0
2018-Apr-21 09:15N 35°39' E 139°46'1 2.8
2018-Apr-21 09:00N 35°38' E 139°46'4 8.1
2018-Apr-21 08:30N 35°35' E 139°48'2 4.4
2018-Apr-21 08:00N 35°37' E 139°49'3 6.1
2018-Apr-21 07:30N 35°39' E 139°46'0 0.2
2018-Apr-21 07:00N 35°39' E 139°46'1 2.0
2018-Apr-21 06:30N 35°38' E 139°46'1 2.0
2018-Apr-21 06:00N 35°39' E 139°46'0 0.0
2018-Apr-21 05:25N 35°39' E 139°46'0 0.0
2018-Apr-21 04:58N 35°39' E 139°46'2 3.7
2018-Apr-21 04:30N 35°37' E 139°46'4 8.7
2018-Apr-21 04:00N 35°34' E 139°49'3 5.6
2018-Apr-21 03:30N 35°37' E 139°49'3 6.8
2018-Apr-21 03:00N 35°38' E 139°46'1 0.4
2018-Apr-21 01:10N 35°39' E 139°46'0 0.0
2018-Apr-20 19:46N 35°39' E 139°46'0 0.0
2018-Apr-20 19:28N 35°39' E 139°46'0 0.0
2018-Apr-20 18:16N 35°39' E 139°46'0 0.0
2018-Apr-20 17:52N 35°39' E 139°46'0 0.0
2018-Apr-20 16:40N 35°39' E 139°46'0 0.0
2018-Apr-20 12:27N 35°39' E 139°46'1 1.4
2018-Apr-20 12:00N 35°39' E 139°46'3 5.4
2018-Apr-20 11:30N 35°36' E 139°47'4 8.6
2018-Apr-20 11:00N 35°34' E 139°51'4 8.3
2018-Apr-20 10:30N 35°37' E 139°48'3 5.9
2018-Apr-20 10:00N 35°39' E 139°46'0 0.0
2018-Apr-20 06:42N 35°39' E 139°46'0 0.0
2018-Apr-20 06:24N 35°39' E 139°46'0 0.0
2018-Apr-20 05:54N 35°39' E 139°46'0 0.0
2018-Apr-20 05:30N 35°39' E 139°46'0 0.0
2018-Apr-20 05:00N 35°39' E 139°46'0 0.0
2018-Apr-20 04:30N 35°39' E 139°46'0 0.0
2018-Apr-20 04:00N 35°39' E 139°46'0 0.0
2018-Apr-20 03:18N 35°39' E 139°46'0 0.0
2018-Apr-20 02:54N 35°39' E 139°46'0 0.0
2018-Apr-20 02:30N 35°39' E 139°46'0 0.0
2018-Apr-20 02:00N 35°39' E 139°46'0 0.0
2018-Apr-19 23:45N 35°39' E 139°46'0 0.0
2018-Apr-19 23:30N 35°39' E 139°46'0 0.0
2018-Apr-19 20:06N 35°39' E 139°46'0 0.0
2018-Apr-19 18:51N 35°39' E 139°46'0 0.0
2018-Apr-19 17:30N 35°39' E 139°46'0 0.0
2018-Apr-19 16:48N 35°39' E 139°46'0 0.0
2018-Apr-19 16:30N 35°39' E 139°46'0 0.0
2018-Apr-19 15:57N 35°39' E 139°46'0 0.0
2018-Apr-19 14:21N 35°39' E 139°46'0 0.0
2018-Apr-19 09:00N 35°39' E 139°46'0 0.0
2018-Apr-19 08:30N 35°39' E 139°46'0 0.0
2018-Apr-19 07:54N 35°39' E 139°46'0 0.0
2018-Apr-19 07:12N 35°39' E 139°46'0 0.0
2018-Apr-19 06:45N 35°39' E 139°46'0 0.0
2018-Apr-19 06:30N 35°39' E 139°46'0 0.0
2018-Apr-19 05:54N 35°39' E 139°46'0 0.0
2018-Apr-19 05:30N 35°39' E 139°46'0 0.0
2018-Apr-19 05:00N 35°39' E 139°46'0 0.0
2018-Apr-19 04:30N 35°39' E 139°46'0 0.0
2018-Apr-19 04:00N 35°39' E 139°46'0 0.0
2018-Apr-19 03:18N 35°39' E 139°46'0 0.0
2018-Apr-19 03:00N 35°39' E 139°46'0 0.0
2018-Apr-19 02:30N 35°39' E 139°46'0 0.0
2018-Apr-19 01:12N 35°39' E 139°46'0 0.0
2018-Apr-19 01:00N 35°39' E 139°46'0 0.0
2018-Apr-18 17:00N 35°39' E 139°46'0 0.0
2018-Apr-18 16:30N 35°39' E 139°46'0 0.0
2018-Apr-18 16:00N 35°39' E 139°46'0 0.0
2018-Apr-18 15:12N 35°39' E 139°46'0 0.0
2018-Apr-18 12:25N 35°39' E 139°46'1 2.4
2018-Apr-18 12:00N 35°38' E 139°46'4 8.5
2018-Apr-18 11:30N 35°34' E 139°49'3 5.6
2018-Apr-18 11:00N 35°36' E 139°52'3 6.8
2018-Apr-18 10:30N 35°36' E 139°47'3 6.6
2018-Apr-18 10:00N 35°39' E 139°46'0 0.0
2018-Apr-18 09:26N 35°39' E 139°46'1 1.2
2018-Apr-18 09:01N 35°39' E 139°46'4 8.9
2018-Apr-18 08:30N 35°35' E 139°48'2 4.8
2018-Apr-18 08:00N 35°37' E 139°49'3 5.5
2018-Apr-18 07:30N 35°39' E 139°46'0 0.9
2018-Apr-18 06:58N 35°39' E 139°46'1 1.5
2018-Apr-18 06:30N 35°38' E 139°46'1 1.3
2018-Apr-18 05:59N 35°39' E 139°46'0 0.0
2018-Apr-18 05:21N 35°39' E 139°46'0 0.0
2018-Apr-18 05:00N 35°39' E 139°46'0 0.0
2018-Apr-18 04:30N 35°39' E 139°46'0 0.0
2018-Apr-18 04:00N 35°39' E 139°46'0 0.0
2018-Apr-18 03:24N 35°39' E 139°46'0 0.0
2018-Apr-18 03:00N 35°39' E 139°46'0 0.0
2018-Apr-18 02:24N 35°39' E 139°46'0 0.0
2018-Apr-18 02:00N 35°39' E 139°46'0 0.0
2018-Apr-18 01:30N 35°39' E 139°46'0 0.0
2018-Apr-18 01:00N 35°39' E 139°46'0 0.0
2018-Apr-18 00:30N 35°39' E 139°46'0 0.0
2018-Apr-17 23:54N 35°39' E 139°46'0 0.0
2018-Apr-17 23:27N 35°39' E 139°46'0 0.0
2018-Apr-17 17:54N 35°39' E 139°46'0 0.0
2018-Apr-17 17:30N 35°39' E 139°46'0 0.0
2018-Apr-17 17:00N 35°39' E 139°46'0 0.0
2018-Apr-17 15:54N 35°39' E 139°46'0 0.0
2018-Apr-17 15:30N 35°39' E 139°46'0 0.0
2018-Apr-17 15:00N 35°39' E 139°46'0 0.0
2018-Apr-17 14:24N 35°39' E 139°46'0 0.0
2018-Apr-17 13:54N 35°39' E 139°46'0 0.0
2018-Apr-17 13:30N 35°39' E 139°46'0 0.0
2018-Apr-17 12:48N 35°39' E 139°46'0 0.0
2018-Apr-17 06:39N 35°39' E 139°46'0 0.0
2018-Apr-17 05:33N 35°39' E 139°46'0 0.0
2018-Apr-17 05:30N 35°39' E 139°46'0 0.0
2018-Apr-17 05:00N 35°39' E 139°46'0 0.0
2018-Apr-17 04:30N 35°39' E 139°46'0 0.0
2018-Apr-17 04:00N 35°39' E 139°46'0 0.0
2018-Apr-17 03:30N 35°39' E 139°46'0 0.0
2018-Apr-17 03:00N 35°39' E 139°46'0 0.0
2018-Apr-17 02:30N 35°39' E 139°46'0 0.0
2018-Apr-17 01:57N 35°39' E 139°46'0 0.0
2018-Apr-17 01:18N 35°39' E 139°46'0 0.0
2018-Apr-17 00:54N 35°39' E 139°46'0 0.0
2018-Apr-16 16:00N 35°39' E 139°46'0 0.0
2018-Apr-16 15:27N 35°39' E 139°46'0 0.0
2018-Apr-16 12:27N 35°39' E 139°46'1 3.1
2018-Apr-16 12:00N 35°38' E 139°46'4 7.1
2018-Apr-16 11:30N 35°35' E 139°48'2 4.2
2018-Apr-16 10:58N 35°37' E 139°50'3 6.3
2018-Apr-16 10:30N 35°37' E 139°46'2 4.6
2018-Apr-16 09:59N 35°39' E 139°46'0 0.0
2018-Apr-16 09:31N 35°39' E 139°46'1 1.5
2018-Apr-16 08:59N 35°38' E 139°46'4 8.0
2018-Apr-16 08:30N 35°35' E 139°48'2 4.5
2018-Apr-16 08:00N 35°37' E 139°49'3 6.1
2018-Apr-16 07:30N 35°38' E 139°46'1 1.5
2018-Apr-16 06:43N 35°39' E 139°46'1 2.4
2018-Apr-16 06:30N 35°39' E 139°46'1 0.6
2018-Apr-16 05:35N 35°39' E 139°46'0 0.0
2018-Apr-16 05:17N 35°39' E 139°46'0 0.0
2018-Apr-16 03:59N 35°39' E 139°46'0 0.0
2018-Apr-16 03:29N 35°39' E 139°46'0 0.0
2018-Apr-16 02:59N 35°39' E 139°46'0 0.0
2018-Apr-16 02:17N 35°39' E 139°46'0 0.0
2018-Apr-16 01:59N 35°39' E 139°46'0 0.0
2018-Apr-16 00:59N 35°39' E 139°46'0 0.0
2018-Apr-15 23:59N 35°39' E 139°46'0 0.0
2018-Apr-15 23:29N 35°39' E 139°46'0 0.0
2018-Apr-15 22:59N 35°39' E 139°46'0 0.0
2018-Apr-15 22:23N 35°39' E 139°46'0 0.0
2018-Apr-15 16:35N 35°39' E 139°46'0 0.0
2018-Apr-15 16:29N 35°39' E 139°46'0 0.0
2018-Apr-15 15:59N 35°39' E 139°46'0 0.0
2018-Apr-15 15:17N 35°39' E 139°46'0 0.0
2018-Apr-15 14:53N 35°39' E 139°46'0 0.0
2018-Apr-15 14:23N 35°39' E 139°46'0 0.0
2018-Apr-15 13:59N 35°39' E 139°46'0 0.0
2018-Apr-15 13:23N 35°39' E 139°46'0 0.0
2018-Apr-15 12:59N 35°39' E 139°46'0 0.0
2018-Apr-15 12:30N 35°39' E 139°46'2 4.1
2018-Apr-15 12:01N 35°37' E 139°46'4 8.1
2018-Apr-15 11:30N 35°34' E 139°49'3 6.0
2018-Apr-15 11:01N 35°37' E 139°49'2 4.5
2018-Apr-15 10:30N 35°37' E 139°46'2 2.2
2018-Apr-15 09:36N 35°39' E 139°46'0 0.0
2018-Apr-15 09:30N 35°39' E 139°46'1 1.5
2018-Apr-15 09:00N 35°39' E 139°46'2 4.5
2018-Apr-15 08:30N 35°36' E 139°47'3 6.4
2018-Apr-15 08:00N 35°35' E 139°50'3 5.9
2018-Apr-15 07:30N 35°36' E 139°47'3 6.4
2018-Apr-15 07:00N 35°39' E 139°46'0 0.0
2018-Apr-15 06:26N 35°39' E 139°46'0 0.0
2018-Apr-15 06:00N 35°39' E 139°46'0 0.0
2018-Apr-15 05:29N 35°39' E 139°46'0 0.0
2018-Apr-15 04:58N 35°39' E 139°46'2 4.4
2018-Apr-15 04:30N 35°37' E 139°46'4 8.8
2018-Apr-15 04:01N 35°33' E 139°49'4 7.3
2018-Apr-15 03:30N 35°37' E 139°49'3 6.7
2018-Apr-15 03:00N 35°38' E 139°46'1 0.3
2018-Apr-15 00:53N 35°39' E 139°46'0 0.0
2018-Apr-15 00:29N 35°39' E 139°46'0 0.0
2018-Apr-14 17:47N 35°39' E 139°46'0 0.0
2018-Apr-14 17:23N 35°39' E 139°46'0 0.0
2018-Apr-14 14:53N 35°39' E 139°46'0 0.0
2018-Apr-14 12:59N 35°39' E 139°46'0 0.0
2018-Apr-14 12:30N 35°39' E 139°46'1 2.3
2018-Apr-14 12:00N 35°38' E 139°46'4 8.3
2018-Apr-14 11:30N 35°34' E 139°48'2 4.1
2018-Apr-14 11:00N 35°36' E 139°47'3 5.7
2018-Apr-14 10:26N 35°39' E 139°46'0 0.0
2018-Apr-14 09:58N 35°39' E 139°46'0 0.0
2018-Apr-14 09:14N 35°39' E 139°46'1 3.2
2018-Apr-14 09:00N 35°38' E 139°46'5 9.4
2018-Apr-14 08:30N 35°34' E 139°48'3 5.4
2018-Apr-14 08:00N 35°37' E 139°49'3 6.5
2018-Apr-14 07:30N 35°38' E 139°46'1 1.1
2018-Apr-14 06:42N 35°39' E 139°46'1 3.0
2018-Apr-14 06:30N 35°39' E 139°46'1 0.8
2018-Apr-14 05:49N 35°39' E 139°46'0 0.0
2018-Apr-14 05:29N 35°39' E 139°46'0 0.0
2018-Apr-14 04:59N 35°39' E 139°46'2 4.0
2018-Apr-14 04:30N 35°37' E 139°46'4 8.1
2018-Apr-14 04:00N 35°34' E 139°49'3 5.9
2018-Apr-14 03:30N 35°37' E 139°49'3 6.2
2018-Apr-14 03:00N 35°38' E 139°46'1 1.2
2018-Apr-14 02:29N 35°39' E 139°46'0 0.0
2018-Apr-13 23:50N 35°39' E 139°46'0 0.0
2018-Apr-13 17:14N 35°39' E 139°46'0 0.0
2018-Apr-13 16:38N 35°39' E 139°46'0 0.0
2018-Apr-13 16:20N 35°39' E 139°46'0 0.0
2018-Apr-13 15:44N 35°39' E 139°46'0 0.0
2018-Apr-13 15:26N 35°39' E 139°46'0 0.0
2018-Apr-13 14:38N 35°39' E 139°46'0 0.0
2018-Apr-13 14:20N 35°39' E 139°46'0 0.0
2018-Apr-13 13:38N 35°39' E 139°46'0 0.0
2018-Apr-13 13:20N 35°39' E 139°46'0 0.0
2018-Apr-13 12:50N 35°39' E 139°46'0 0.0
2018-Apr-13 12:29N 35°39' E 139°46'1 2.3
2018-Apr-13 12:00N 35°38' E 139°46'4 7.6
2018-Apr-13 11:30N 35°35' E 139°48'2 4.8
2018-Apr-13 11:00N 35°35' E 139°51'3 6.8
2018-Apr-13 10:30N 35°36' E 139°47'3 7.0
2018-Apr-13 10:00N 35°39' E 139°46'0 0.0
2018-Apr-13 04:22N 35°39' E 139°46'0 0.0
2018-Apr-13 03:55N 35°39' E 139°46'0 0.0
2018-Apr-13 03:16N 35°39' E 139°46'0 0.0
2018-Apr-13 02:55N 35°39' E 139°46'0 0.0
2018-Apr-13 02:28N 35°39' E 139°46'0 0.0
2018-Apr-13 01:40N 35°39' E 139°46'0 0.0
2018-Apr-13 01:28N 35°39' E 139°46'0 0.0
2018-Apr-13 00:52N 35°39' E 139°46'0 0.0
2018-Apr-13 00:28N 35°39' E 139°46'0 0.0
2018-Apr-12 23:58N 35°39' E 139°46'0 0.0
2018-Apr-12 23:22N 35°39' E 139°46'0 0.0
2018-Apr-12 22:52N 35°39' E 139°46'0 0.0
2018-Apr-12 22:19N 35°39' E 139°46'0 0.0
2018-Apr-12 21:58N 35°39' E 139°46'0 0.0
2018-Apr-12 21:19N 35°39' E 139°46'0 0.0
2018-Apr-12 20:31N 35°39' E 139°46'0 0.0
2018-Apr-12 20:19N 35°39' E 139°46'0 0.0
2018-Apr-12 07:34N 35°39' E 139°46'0 0.0
2018-Apr-12 07:13N 35°39' E 139°46'0 0.0
2018-Apr-12 06:49N 35°39' E 139°46'  
Track history (hours):
 
Tides and Currents Weather Stations Pressure Air Temp Water Temp Dewpoint Dewpoint Depression Visibility Wind Speed Wind Dir Waves Ship Positions

Symphony Classica

Last reported at 2018-Apr-22 06:30 UTC. Time now 2018-Apr-22 06:43 UTC.
Position N 35°38' E 139°46'.

Length 70 m; draft 2.6 m.

Type: Passenger vessel. MMSI: 431000425.

Date/timePositionNaut miles runAvg speedWind from/ knotsBaromVisibWave heightAir tempDewpointWater temp
2018-Apr-22 06:30N 35°38' E 139°46'1 1.6
2018-Apr-22 06:00N 35°39' E 139°46'0 0.0
2018-Apr-22 05:15N 35°39' E 139°46'0 0.0
2018-Apr-22 04:57N 35°39' E 139°46'1 2.3
2018-Apr-22 04:30N 35°38' E 139°46'5 9.2
2018-Apr-22 04:00N 35°34' E 139°49'3 5.2
2018-Apr-22 03:30N 35°37' E 139°49'3 6.3
2018-Apr-22 03:00N 35°38' E 139°46'1 0.1
2018-Apr-21 12:28N 35°39' E 139°46'1 2.7
2018-Apr-21 12:00N 35°38' E 139°46'4 8.8
2018-Apr-21 11:30N 35°34' E 139°49'2 4.1
2018-Apr-21 10:59N 35°35' E 139°51'3 6.4
2018-Apr-21 10:31N 35°36' E 139°47'3 6.6
2018-Apr-21 10:00N 35°39' E 139°46'0 0.0
2018-Apr-21 09:15N 35°39' E 139°46'1 2.8
2018-Apr-21 09:00N 35°38' E 139°46'4 8.1
2018-Apr-21 08:30N 35°35' E 139°48'2 4.4
2018-Apr-21 08:00N 35°37' E 139°49'3 6.1
2018-Apr-21 07:30N 35°39' E 139°46'0 0.2
2018-Apr-21 07:00N 35°39' E 139°46'1 2.0
2018-Apr-21 06:30N 35°38' E 139°46'1 2.0
2018-Apr-21 06:00N 35°39' E 139°46'0 0.0
2018-Apr-21 05:25N 35°39' E 139°46'0 0.0
2018-Apr-21 04:58N 35°39' E 139°46'2 3.7
2018-Apr-21 04:30N 35°37' E 139°46'4 8.7
2018-Apr-21 04:00N 35°34' E 139°49'3 5.6
2018-Apr-21 03:30N 35°37' E 139°49'3 6.8
2018-Apr-21 03:00N 35°38' E 139°46'1 0.4
2018-Apr-21 01:10N 35°39' E 139°46'0 0.0
2018-Apr-20 19:46N 35°39' E 139°46'0 0.0
2018-Apr-20 19:28N 35°39' E 139°46'0 0.0
2018-Apr-20 18:16N 35°39' E 139°46'0 0.0
2018-Apr-20 17:52N 35°39' E 139°46'0 0.0
2018-Apr-20 16:40N 35°39' E 139°46'0 0.0
2018-Apr-20 12:27N 35°39' E 139°46'1 1.4
2018-Apr-20 12:00N 35°39' E 139°46'3 5.4
2018-Apr-20 11:30N 35°36' E 139°47'4 8.6
2018-Apr-20 11:00N 35°34' E 139°51'4 8.3
2018-Apr-20 10:30N 35°37' E 139°48'3 5.9
2018-Apr-20 10:00N 35°39' E 139°46'0 0.0
2018-Apr-20 06:42N 35°39' E 139°46'0 0.0
2018-Apr-20 06:24N 35°39' E 139°46'0 0.0
2018-Apr-20 05:54N 35°39' E 139°46'0 0.0
2018-Apr-20 05:30N 35°39' E 139°46'0 0.0
2018-Apr-20 05:00N 35°39' E 139°46'0 0.0
2018-Apr-20 04:30N 35°39' E 139°46'0 0.0
2018-Apr-20 04:00N 35°39' E 139°46'0 0.0
2018-Apr-20 03:18N 35°39' E 139°46'0 0.0
2018-Apr-20 02:54N 35°39' E 139°46'0 0.0
2018-Apr-20 02:30N 35°39' E 139°46'0 0.0
2018-Apr-20 02:00N 35°39' E 139°46'0 0.0
2018-Apr-19 23:45N 35°39' E 139°46'0 0.0
2018-Apr-19 23:30N 35°39' E 139°46'0 0.0
2018-Apr-19 20:06N 35°39' E 139°46'0 0.0
2018-Apr-19 18:51N 35°39' E 139°46'0 0.0
2018-Apr-19 17:30N 35°39' E 139°46'0 0.0
2018-Apr-19 16:48N 35°39' E 139°46'0 0.0
2018-Apr-19 16:30N 35°39' E 139°46'0 0.0
2018-Apr-19 15:57N 35°39' E 139°46'0 0.0
2018-Apr-19 14:21N 35°39' E 139°46'0 0.0
2018-Apr-19 09:00N 35°39' E 139°46'0 0.0
2018-Apr-19 08:30N 35°39' E 139°46'0 0.0
2018-Apr-19 07:54N 35°39' E 139°46'0 0.0
2018-Apr-19 07:12N 35°39' E 139°46'0 0.0
2018-Apr-19 06:45N 35°39' E 139°46'0 0.0
2018-Apr-19 06:30N 35°39' E 139°46'0 0.0
2018-Apr-19 05:54N 35°39' E 139°46'0 0.0
2018-Apr-19 05:30N 35°39' E 139°46'0 0.0
2018-Apr-19 05:00N 35°39' E 139°46'0 0.0
2018-Apr-19 04:30N 35°39' E 139°46'0 0.0
2018-Apr-19 04:00N 35°39' E 139°46'0 0.0
2018-Apr-19 03:18N 35°39' E 139°46'0 0.0
2018-Apr-19 03:00N 35°39' E 139°46'0 0.0
2018-Apr-19 02:30N 35°39' E 139°46'0 0.0
2018-Apr-19 01:12N 35°39' E 139°46'0 0.0
2018-Apr-19 01:00N 35°39' E 139°46'0 0.0
2018-Apr-18 17:00N 35°39' E 139°46'0 0.0
2018-Apr-18 16:30N 35°39' E 139°46'0 0.0
2018-Apr-18 16:00N 35°39' E 139°46'0 0.0
2018-Apr-18 15:12N 35°39' E 139°46'0 0.0
2018-Apr-18 12:25N 35°39' E 139°46'1 2.4
2018-Apr-18 12:00N 35°38' E 139°46'4 8.5
2018-Apr-18 11:30N 35°34' E 139°49'3 5.6
2018-Apr-18 11:00N 35°36' E 139°52'3 6.8
2018-Apr-18 10:30N 35°36' E 139°47'3 6.6
2018-Apr-18 10:00N 35°39' E 139°46'0 0.0
2018-Apr-18 09:26N 35°39' E 139°46'1 1.2
2018-Apr-18 09:01N 35°39' E 139°46'4 8.9
2018-Apr-18 08:30N 35°35' E 139°48'2 4.8
2018-Apr-18 08:00N 35°37' E 139°49'3 5.5
2018-Apr-18 07:30N 35°39' E 139°46'0 0.9
2018-Apr-18 06:58N 35°39' E 139°46'1 1.5
2018-Apr-18 06:30N 35°38' E 139°46'1 1.3
2018-Apr-18 05:59N 35°39' E 139°46'0 0.0
2018-Apr-18 05:21N 35°39' E 139°46'0 0.0
2018-Apr-18 05:00N 35°39' E 139°46'0 0.0
2018-Apr-18 04:30N 35°39' E 139°46'0 0.0
2018-Apr-18 04:00N 35°39' E 139°46'0 0.0
2018-Apr-18 03:24N 35°39' E 139°46'0 0.0
2018-Apr-18 03:00N 35°39' E 139°46'0 0.0
2018-Apr-18 02:24N 35°39' E 139°46'0 0.0
2018-Apr-18 02:00N 35°39' E 139°46'0 0.0
2018-Apr-18 01:30N 35°39' E 139°46'0 0.0
2018-Apr-18 01:00N 35°39' E 139°46'0 0.0
2018-Apr-18 00:30N 35°39' E 139°46'0 0.0
2018-Apr-17 23:54N 35°39' E 139°46'0 0.0
2018-Apr-17 23:27N 35°39' E 139°46'0 0.0
2018-Apr-17 17:54N 35°39' E 139°46'0 0.0
2018-Apr-17 17:30N 35°39' E 139°46'0 0.0
2018-Apr-17 17:00N 35°39' E 139°46'0 0.0
2018-Apr-17 15:54N 35°39' E 139°46'0 0.0
2018-Apr-17 15:30N 35°39' E 139°46'0 0.0
2018-Apr-17 15:00N 35°39' E 139°46'0 0.0
2018-Apr-17 14:24N 35°39' E 139°46'0 0.0
2018-Apr-17 13:54N 35°39' E 139°46'0 0.0
2018-Apr-17 13:30N 35°39' E 139°46'0 0.0
2018-Apr-17 12:48N 35°39' E 139°46'0 0.0
2018-Apr-17 06:39N 35°39' E 139°46'0 0.0
2018-Apr-17 05:33N 35°39' E 139°46'0 0.0
2018-Apr-17 05:30N 35°39' E 139°46'0 0.0
2018-Apr-17 05:00N 35°39' E 139°46'0 0.0
2018-Apr-17 04:30N 35°39' E 139°46'0 0.0
2018-Apr-17 04:00N 35°39' E 139°46'0 0.0
2018-Apr-17 03:30N 35°39' E 139°46'0 0.0
2018-Apr-17 03:00N 35°39' E 139°46'0 0.0
2018-Apr-17 02:30N 35°39' E 139°46'0 0.0
2018-Apr-17 01:57N 35°39' E 139°46'0 0.0
2018-Apr-17 01:18N 35°39' E 139°46'0 0.0
2018-Apr-17 00:54N 35°39' E 139°46'0 0.0
2018-Apr-16 16:00N 35°39' E 139°46'0 0.0
2018-Apr-16 15:27N 35°39' E 139°46'0 0.0
2018-Apr-16 12:27N 35°39' E 139°46'1 3.1
2018-Apr-16 12:00N 35°38' E 139°46'4 7.1
2018-Apr-16 11:30N 35°35' E 139°48'2 4.2
2018-Apr-16 10:58N 35°37' E 139°50'3 6.3
2018-Apr-16 10:30N 35°37' E 139°46'2 4.6
2018-Apr-16 09:59N 35°39' E 139°46'0 0.0
2018-Apr-16 09:31N 35°39' E 139°46'1 1.5
2018-Apr-16 08:59N 35°38' E 139°46'4 8.0
2018-Apr-16 08:30N 35°35' E 139°48'2 4.5
2018-Apr-16 08:00N 35°37' E 139°49'3 6.1
2018-Apr-16 07:30N 35°38' E 139°46'1 1.5
2018-Apr-16 06:43N 35°39' E 139°46'1 2.4
2018-Apr-16 06:30N 35°39' E 139°46'1 0.6
2018-Apr-16 05:35N 35°39' E 139°46'0 0.0
2018-Apr-16 05:17N 35°39' E 139°46'0 0.0
2018-Apr-16 03:59N 35°39' E 139°46'0 0.0
2018-Apr-16 03:29N 35°39' E 139°46'0 0.0
2018-Apr-16 02:59N 35°39' E 139°46'0 0.0
2018-Apr-16 02:17N 35°39' E 139°46'0 0.0
2018-Apr-16 01:59N 35°39' E 139°46'0 0.0
2018-Apr-16 00:59N 35°39' E 139°46'0 0.0
2018-Apr-15 23:59N 35°39' E 139°46'0 0.0
2018-Apr-15 23:29N 35°39' E 139°46'0 0.0
2018-Apr-15 22:59N 35°39' E 139°46'0 0.0
2018-Apr-15 22:23N 35°39' E 139°46'0 0.0
2018-Apr-15 16:35N 35°39' E 139°46'0 0.0
2018-Apr-15 16:29N 35°39' E 139°46'0 0.0
2018-Apr-15 15:59N 35°39' E 139°46'0 0.0
2018-Apr-15 15:17N 35°39' E 139°46'0 0.0
2018-Apr-15 14:53N 35°39' E 139°46'0 0.0
2018-Apr-15 14:23N 35°39' E 139°46'0 0.0
2018-Apr-15 13:59N 35°39' E 139°46'0 0.0
2018-Apr-15 13:23N 35°39' E 139°46'0 0.0
2018-Apr-15 12:59N 35°39' E 139°46'0 0.0
2018-Apr-15 12:30N 35°39' E 139°46'2 4.1
2018-Apr-15 12:01N 35°37' E 139°46'4 8.1
2018-Apr-15 11:30N 35°34' E 139°49'3 6.0
2018-Apr-15 11:01N 35°37' E 139°49'2 4.5
2018-Apr-15 10:30N 35°37' E 139°46'2 2.2
2018-Apr-15 09:36N 35°39' E 139°46'0 0.0
2018-Apr-15 09:30N 35°39' E 139°46'1 1.5
2018-Apr-15 09:00N 35°39' E 139°46'2 4.5
2018-Apr-15 08:30N 35°36' E 139°47'3 6.4
2018-Apr-15 08:00N 35°35' E 139°50'3 5.9
2018-Apr-15 07:30N 35°36' E 139°47'3 6.4
2018-Apr-15 07:00N 35°39' E 139°46'0 0.0
2018-Apr-15 06:26N 35°39' E 139°46'0 0.0
2018-Apr-15 06:00N 35°39' E 139°46'0 0.0
2018-Apr-15 05:29N 35°39' E 139°46'0 0.0
2018-Apr-15 04:58N 35°39' E 139°46'2 4.4
2018-Apr-15 04:30N 35°37' E 139°46'4 8.8
2018-Apr-15 04:01N 35°33' E 139°49'4 7.3
2018-Apr-15 03:30N 35°37' E 139°49'3 6.7
2018-Apr-15 03:00N 35°38' E 139°46'1 0.3
2018-Apr-15 00:53N 35°39' E 139°46'0 0.0
2018-Apr-15 00:29N 35°39' E 139°46'0 0.0
2018-Apr-14 17:47N 35°39' E 139°46'0 0.0
2018-Apr-14 17:23N 35°39' E 139°46'0 0.0
2018-Apr-14 14:53N 35°39' E 139°46'0 0.0
2018-Apr-14 12:59N 35°39' E 139°46'0 0.0
2018-Apr-14 12:30N 35°39' E 139°46'1 2.3
2018-Apr-14 12:00N 35°38' E 139°46'4 8.3
2018-Apr-14 11:30N 35°34' E 139°48'2 4.1
2018-Apr-14 11:00N 35°36' E 139°47'3 5.7
2018-Apr-14 10:26N 35°39' E 139°46'0 0.0
2018-Apr-14 09:58N 35°39' E 139°46'0 0.0
2018-Apr-14 09:14N 35°39' E 139°46'1 3.2
2018-Apr-14 09:00N 35°38' E 139°46'5 9.4
2018-Apr-14 08:30N 35°34' E 139°48'3 5.4
2018-Apr-14 08:00N 35°37' E 139°49'3 6.5
2018-Apr-14 07:30N 35°38' E 139°46'1 1.1
2018-Apr-14 06:42N 35°39' E 139°46'1 3.0
2018-Apr-14 06:30N 35°39' E 139°46'1 0.8
2018-Apr-14 05:49N 35°39' E 139°46'0 0.0
2018-Apr-14 05:29N 35°39' E 139°46'0 0.0
2018-Apr-14 04:59N 35°39' E 139°46'2 4.0
2018-Apr-14 04:30N 35°37' E 139°46'4 8.1
2018-Apr-14 04:00N 35°34' E 139°49'3 5.9
2018-Apr-14 03:30N 35°37' E 139°49'3 6.2
2018-Apr-14 03:00N 35°38' E 139°46'1 1.2
2018-Apr-14 02:29N 35°39' E 139°46'0 0.0
2018-Apr-13 23:50N 35°39' E 139°46'0 0.0
2018-Apr-13 17:14N 35°39' E 139°46'0 0.0
2018-Apr-13 16:38N 35°39' E 139°46'0 0.0
2018-Apr-13 16:20N 35°39' E 139°46'0 0.0
2018-Apr-13 15:44N 35°39' E 139°46'0 0.0
2018-Apr-13 15:26N 35°39' E 139°46'0 0.0
2018-Apr-13 14:38N 35°39' E 139°46'0 0.0
2018-Apr-13 14:20N 35°39' E 139°46'0 0.0
2018-Apr-13 13:38N 35°39' E 139°46'0 0.0
2018-Apr-13 13:20N 35°39' E 139°46'0 0.0
2018-Apr-13 12:50N 35°39' E 139°46'0 0.0
2018-Apr-13 12:29N 35°39' E 139°46'1 2.3
2018-Apr-13 12:00N 35°38' E 139°46'4 7.6
2018-Apr-13 11:30N 35°35' E 139°48'2 4.8
2018-Apr-13 11:00N 35°35' E 139°51'3 6.8
2018-Apr-13 10:30N 35°36' E 139°47'3 7.0
2018-Apr-13 10:00N 35°39' E 139°46'0 0.0
2018-Apr-13 04:22N 35°39' E 139°46'0 0.0
2018-Apr-13 03:55N 35°39' E 139°46'0 0.0
2018-Apr-13 03:16N 35°39' E 139°46'0 0.0
2018-Apr-13 02:55N 35°39' E 139°46'0 0.0
2018-Apr-13 02:28N 35°39' E 139°46'0 0.0
2018-Apr-13 01:40N 35°39' E 139°46'0 0.0
2018-Apr-13 01:28N 35°39' E 139°46'0 0.0
2018-Apr-13 00:52N 35°39' E 139°46'0 0.0
2018-Apr-13 00:28N 35°39' E 139°46'0 0.0
2018-Apr-12 23:58N 35°39' E 139°46'0 0.0
2018-Apr-12 23:22N 35°39' E 139°46'0 0.0
2018-Apr-12 22:52N 35°39' E 139°46'0 0.0
2018-Apr-12 22:19N 35°39' E 139°46'0 0.0
2018-Apr-12 21:58N 35°39' E 139°46'0 0.0
2018-Apr-12 21:19N 35°39' E 139°46'0 0.0
2018-Apr-12 20:31N 35°39' E 139°46'0 0.0
2018-Apr-12 20:19N 35°39' E 139°46'0 0.0
2018-Apr-12 07:34N 35°39' E 139°46'0 0.0
2018-Apr-12 07:13N 35°39' E 139°46'0 0.0
2018-Apr-12 06:49N 35°39' E 139°46'  

Dump ship's entire track history